createdAt,value
2019-03-19T00:02:09.251Z,74.71
2019-03-19T00:04:40.998Z,74.76
2019-03-19T00:07:12.819Z,74.78
2019-03-19T00:09:44.391Z,74.56
2019-03-19T00:12:16.294Z,74.49
2019-03-19T00:14:49.481Z,74.40
2019-03-19T00:17:21.052Z,74.38
2019-03-19T00:19:52.508Z,74.41
2019-03-19T00:22:25.790Z,74.58
2019-03-19T00:24:57.740Z,74.37
2019-03-19T00:27:29.565Z,74.43
2019-03-19T00:30:01.222Z,74.49
2019-03-19T00:32:32.920Z,74.53
2019-03-19T00:35:05.019Z,74.70
2019-03-19T00:37:36.900Z,74.13
2019-03-19T00:40:08.801Z,74.38
2019-03-19T00:42:40.270Z,74.34
2019-03-19T00:45:12.368Z,74.38
2019-03-19T00:47:43.755Z,74.19
2019-03-19T00:50:15.303Z,74.14
2019-03-19T00:52:46.986Z,74.31
2019-03-19T00:55:18.793Z,74.30
2019-03-19T00:57:50.176Z,74.45
2019-03-19T01:00:21.767Z,74.63
2019-03-19T01:02:53.609Z,74.75
2019-03-19T01:05:25.234Z,74.93
2019-03-19T01:07:56.753Z,75.16
2019-03-19T01:10:28.119Z,75.33
2019-03-19T01:12:59.682Z,75.44
2019-03-19T01:15:31.229Z,75.58
2019-03-19T01:18:02.927Z,75.53
2019-03-19T01:20:34.547Z,75.42
2019-03-19T01:23:06.066Z,75.57
2019-03-19T01:25:37.733Z,75.50
2019-03-19T01:28:09.167Z,75.40
2019-03-19T01:30:40.772Z,75.53
2019-03-19T01:33:12.471Z,75.55
2019-03-19T01:35:44.182Z,75.75
2019-03-19T01:38:16.631Z,76.03
2019-03-19T01:40:48.241Z,76.17
2019-03-19T01:43:20.280Z,76.60
2019-03-19T01:45:51.751Z,76.52
2019-03-19T01:48:23.214Z,76.63
2019-03-19T01:50:54.830Z,76.78
2019-03-19T01:53:26.200Z,76.86
2019-03-19T01:56:05.196Z,77.19
2019-03-19T01:58:30.514Z,77.19
2019-03-19T02:01:02.318Z,77.37
2019-03-19T02:03:33.808Z,77.43
2019-03-19T02:06:05.240Z,77.44
2019-03-19T02:08:36.759Z,77.59
2019-03-19T02:11:09.335Z,77.61
2019-03-19T02:13:40.969Z,77.18
2019-03-19T02:16:12.766Z,77.24
2019-03-19T02:18:44.600Z,77.36
2019-03-19T02:21:16.250Z,77.34
2019-03-19T02:23:47.797Z,77.31
2019-03-19T02:26:19.200Z,77.38
2019-03-19T02:28:51.107Z,76.98
2019-03-19T02:31:22.617Z,77.21
2019-03-19T02:33:55.961Z,77.25
2019-03-19T02:36:27.572Z,77.20
2019-03-19T02:38:59.039Z,77.07
2019-03-19T02:41:30.565Z,76.77
2019-03-19T02:44:02.166Z,76.99
2019-03-19T02:46:33.716Z,77.07
2019-03-19T02:49:05.131Z,77.29
2019-03-19T02:51:36.506Z,77.26
2019-03-19T02:54:08.893Z,77.18
2019-03-19T02:56:40.720Z,77.29
2019-03-19T02:59:12.328Z,77.53
2019-03-19T03:01:43.795Z,77.56
2019-03-19T03:04:15.562Z,77.50
2019-03-19T03:06:47.458Z,77.54
2019-03-19T03:09:19.304Z,77.64
2019-03-19T03:11:50.999Z,77.66
2019-03-19T03:14:22.367Z,77.78
2019-03-19T03:16:54.822Z,77.97
2019-03-19T03:19:27.380Z,78.01
2019-03-19T03:21:59.213Z,77.92
2019-03-19T03:24:30.890Z,77.99
2019-03-19T03:27:02.679Z,78.18
2019-03-19T03:29:34.211Z,78.11
2019-03-19T03:32:05.837Z,78.33
2019-03-19T03:34:37.238Z,78.17
2019-03-19T03:37:08.669Z,78.51
2019-03-19T03:39:40.169Z,78.40
2019-03-19T03:42:11.904Z,78.67
2019-03-19T03:44:43.699Z,78.28
2019-03-19T03:47:15.140Z,78.40
2019-03-19T03:49:46.858Z,78.59
2019-03-19T03:52:19.925Z,78.77
2019-03-19T03:54:51.708Z,78.57
2019-03-19T03:57:23.264Z,78.71
2019-03-19T03:59:54.633Z,78.80
2019-03-19T04:02:26.115Z,78.72
2019-03-19T04:04:57.690Z,78.75
2019-03-19T04:07:29.173Z,78.73
2019-03-19T04:10:00.923Z,78.93
2019-03-19T04:12:32.423Z,78.67
2019-03-19T04:15:04.149Z,78.42
2019-03-19T04:17:35.878Z,78.52
2019-03-19T04:20:07.621Z,78.46
2019-03-19T04:22:38.932Z,78.66
2019-03-19T04:25:11.040Z,78.65
2019-03-19T04:27:42.766Z,78.96
2019-03-19T04:30:14.432Z,78.90
2019-03-19T04:32:46.031Z,79.01
2019-03-19T04:35:17.931Z,79.00
2019-03-19T04:37:49.448Z,79.04
2019-03-19T04:40:21.116Z,79.07
2019-03-19T04:42:52.874Z,79.20
2019-03-19T04:45:24.657Z,79.14
2019-03-19T04:47:56.091Z,79.28
2019-03-19T04:50:27.724Z,79.32
2019-03-19T04:52:59.348Z,79.40
2019-03-19T04:55:31.234Z,79.50
2019-03-19T04:58:02.733Z,79.50
2019-03-19T05:00:34.204Z,79.56
2019-03-19T05:03:05.880Z,79.73
2019-03-19T05:05:37.571Z,79.75
2019-03-19T05:08:08.990Z,79.65
2019-03-19T05:10:40.576Z,79.77
2019-03-19T05:13:12.165Z,79.84
2019-03-19T05:15:43.600Z,79.86
2019-03-19T05:18:15.384Z,79.78
2019-03-19T05:20:47.151Z,79.85
2019-03-19T05:23:18.640Z,79.92
2019-03-19T05:25:50.225Z,79.82
2019-03-19T05:28:21.648Z,79.91
2019-03-19T05:30:53.325Z,79.67
2019-03-19T05:33:24.898Z,79.60
2019-03-19T05:35:56.227Z,79.38
2019-03-19T05:38:27.898Z,79.25
2019-03-19T05:40:59.241Z,79.16
2019-03-19T05:43:31.006Z,79.12
2019-03-19T05:46:02.593Z,79.05
2019-03-19T05:48:33.987Z,79.16
2019-03-19T05:51:05.775Z,79.26
2019-03-19T05:53:37.314Z,78.93
2019-03-19T05:56:08.824Z,78.83
2019-03-19T05:58:40.203Z,78.83
2019-03-19T06:01:11.838Z,78.80
2019-03-19T06:03:43.493Z,78.51
2019-03-19T06:06:14.884Z,78.40
2019-03-19T06:08:46.422Z,78.12
2019-03-19T06:11:17.950Z,77.95
2019-03-19T06:13:49.530Z,77.59
2019-03-19T06:16:21.265Z,77.47
2019-03-19T06:18:52.819Z,77.33
2019-03-19T06:21:24.639Z,77.17
2019-03-19T06:23:56.089Z,77.08
2019-03-19T06:26:27.678Z,77.21
2019-03-19T06:28:59.143Z,76.74
2019-03-19T06:31:30.759Z,76.52
2019-03-19T06:34:02.286Z,76.42
2019-03-19T06:36:34.007Z,76.15
2019-03-19T06:39:08.087Z,76.16
2019-03-19T06:41:40.099Z,76.45
2019-03-19T06:44:11.605Z,70.37
2019-03-19T06:46:43.322Z,65.70
2019-03-19T06:49:14.811Z,62.02
2019-03-19T06:51:46.472Z,56.07
2019-03-19T06:54:18.166Z,51.14
2019-03-19T06:56:49.638Z,52.17
2019-03-19T06:59:21.384Z,54.46
2019-03-19T07:01:53.164Z,56.77
2019-03-19T07:04:24.896Z,54.41
2019-03-19T07:06:56.581Z,50.41
2019-03-19T07:09:29.716Z,48.97
2019-03-19T07:12:01.717Z,51.95
2019-03-19T07:14:34.640Z,52.63
2019-03-19T07:17:06.328Z,51.35
2019-03-19T07:19:38.284Z,48.22
2019-03-19T07:22:09.839Z,50.81
2019-03-19T07:24:41.692Z,54.67
2019-03-19T07:27:13.177Z,56.77
2019-03-19T07:29:44.924Z,58.15
2019-03-19T07:32:16.427Z,58.18
2019-03-19T07:34:49.529Z,58.55
2019-03-19T07:37:21.221Z,58.36
2019-03-19T07:39:52.803Z,57.24
2019-03-19T07:42:24.379Z,58.76
2019-03-19T07:44:55.790Z,58.75
2019-03-19T07:47:27.315Z,59.00
2019-03-19T07:49:58.630Z,57.19
2019-03-19T07:52:30.999Z,58.01
2019-03-19T07:55:02.818Z,56.48
2019-03-19T07:57:34.748Z,52.22
2019-03-19T08:00:07.429Z,47.73
2019-03-19T08:02:39.134Z,46.18
2019-03-19T08:05:10.955Z,42.46
2019-03-19T08:07:42.669Z,42.43
2019-03-19T08:10:14.663Z,45.83
2019-03-19T08:12:46.542Z,43.12
2019-03-19T08:15:18.034Z,43.22
2019-03-19T08:17:49.672Z,47.00
2019-03-19T08:20:21.253Z,47.76
2019-03-19T08:22:52.814Z,42.62
2019-03-19T08:25:24.377Z,41.00
2019-03-19T08:27:55.761Z,38.85
2019-03-19T08:30:27.565Z,40.18
2019-03-19T08:32:59.089Z,38.50
2019-03-19T08:35:30.796Z,42.46
2019-03-19T08:38:02.435Z,39.95
2019-03-19T08:40:33.896Z,39.57
2019-03-19T08:43:05.775Z,40.90
2019-03-19T08:45:37.492Z,40.21
2019-03-19T08:48:09.848Z,39.67
2019-03-19T08:50:41.799Z,40.36
2019-03-19T08:53:13.410Z,41.38
2019-03-19T08:55:45.468Z,40.25
2019-03-19T08:58:17.174Z,39.67
2019-03-19T09:00:48.786Z,40.29
2019-03-19T09:03:20.279Z,38.96
2019-03-19T09:05:51.994Z,40.50
2019-03-19T09:08:24.546Z,41.31
2019-03-19T09:10:56.175Z,39.19
2019-03-19T09:13:28.593Z,40.84
2019-03-19T09:16:00.611Z,38.73
2019-03-19T09:18:32.311Z,39.39
2019-03-19T09:21:03.766Z,41.74
2019-03-19T09:23:35.592Z,41.55
2019-03-19T09:26:07.522Z,45.27
2019-03-19T09:28:39.255Z,44.40
2019-03-19T09:31:10.858Z,45.23
2019-03-19T09:33:42.844Z,42.23
2019-03-19T09:36:14.327Z,45.10
2019-03-19T09:38:46.064Z,44.71
2019-03-19T09:41:17.493Z,43.13
2019-03-19T09:43:49.396Z,43.09
2019-03-19T09:46:20.904Z,41.79
2019-03-19T09:48:52.657Z,41.79
2019-03-19T09:51:25.002Z,41.92
2019-03-19T09:53:57.041Z,42.45
2019-03-19T09:56:28.984Z,40.93
2019-03-19T09:59:00.570Z,39.54
2019-03-19T10:01:32.116Z,44.01
2019-03-19T10:04:03.749Z,44.01
2019-03-19T10:06:35.499Z,44.37
2019-03-19T10:09:09.010Z,42.45
2019-03-19T10:11:40.943Z,42.70
2019-03-19T10:14:12.551Z,40.22
2019-03-19T10:16:44.284Z,40.22
2019-03-19T10:19:15.963Z,39.70
2019-03-19T10:21:47.551Z,40.37
2019-03-19T10:24:19.525Z,41.93
2019-03-19T10:26:51.613Z,40.99
2019-03-19T10:29:23.198Z,39.89
2019-03-19T10:31:54.989Z,40.28
2019-03-19T10:34:26.579Z,40.59
2019-03-19T10:36:59.210Z,40.15
2019-03-19T10:39:30.946Z,38.33
2019-03-19T10:42:02.534Z,35.75
2019-03-19T10:44:35.162Z,39.26
2019-03-19T10:47:07.387Z,38.92
2019-03-19T10:49:38.987Z,39.88
2019-03-19T10:52:10.697Z,38.42
2019-03-19T10:54:42.346Z,38.78
2019-03-19T10:57:14.163Z,37.67
2019-03-19T10:59:49.323Z,39.62
2019-03-19T11:02:20.248Z,38.75
2019-03-19T11:04:52.189Z,37.01
2019-03-19T11:07:24.572Z,37.07
2019-03-19T11:09:56.202Z,34.23
2019-03-19T11:12:27.795Z,34.84
2019-03-19T11:14:59.458Z,35.12
2019-03-19T11:17:31.139Z,35.63
2019-03-19T11:20:03.071Z,33.47
2019-03-19T11:22:34.928Z,35.66
2019-03-19T11:25:08.411Z,36.79
2019-03-19T11:27:40.528Z,36.22
2019-03-19T11:30:15.462Z,38.06
2019-03-19T11:32:46.940Z,38.06
2019-03-19T11:35:18.832Z,38.28
2019-03-19T11:37:50.611Z,38.02
2019-03-19T11:40:22.501Z,37.15
2019-03-19T11:42:55.106Z,37.93
2019-03-19T11:45:27.117Z,38.27
2019-03-19T11:47:58.792Z,37.60
2019-03-19T11:50:33.144Z,36.57
2019-03-19T11:53:04.420Z,37.43
2019-03-19T11:55:36.088Z,38.73
2019-03-19T11:58:07.531Z,40.18
2019-03-19T12:00:40.746Z,39.55
2019-03-19T12:03:16.108Z,39.26
2019-03-19T12:05:45.606Z,39.93
2019-03-19T12:08:17.323Z,39.73
2019-03-19T12:10:48.934Z,36.83
2019-03-19T12:13:20.294Z,36.64
2019-03-19T12:15:51.825Z,36.64
2019-03-19T12:18:23.178Z,39.06
2019-03-19T12:20:54.808Z,41.50
2019-03-19T12:23:26.441Z,41.50
2019-03-19T12:25:58.036Z,40.68
2019-03-19T12:28:39.351Z,40.83
2019-03-19T12:31:03.186Z,42.58
2019-03-19T12:33:40.788Z,43.09
2019-03-19T12:36:08.250Z,42.13
2019-03-19T12:38:40.041Z,42.48
2019-03-19T12:41:11.595Z,42.42
2019-03-19T12:43:43.492Z,43.02
2019-03-19T12:46:15.133Z,46.15
2019-03-19T12:48:46.543Z,48.18
2019-03-19T12:51:18.147Z,51.01
2019-03-19T12:53:50.189Z,48.83
2019-03-19T12:56:21.709Z,49.37
2019-03-19T12:58:53.353Z,51.62
2019-03-19T13:01:25.112Z,51.83
2019-03-19T13:03:56.866Z,54.40
2019-03-19T13:06:28.473Z,54.88
2019-03-19T13:09:00.000Z,52.20
2019-03-19T13:11:31.704Z,52.41
2019-03-19T13:14:03.109Z,53.00
2019-03-19T13:16:34.632Z,45.25
2019-03-19T13:19:06.214Z,46.30
2019-03-19T13:21:37.985Z,47.23
2019-03-19T13:24:10.592Z,47.16
2019-03-19T13:26:42.391Z,48.21
2019-03-19T13:29:13.928Z,48.77
2019-03-19T13:31:45.705Z,49.05
2019-03-19T13:34:17.334Z,50.13
2019-03-19T13:36:49.110Z,49.49
2019-03-19T13:39:20.965Z,46.66
2019-03-19T13:41:52.410Z,46.88
2019-03-19T13:44:24.279Z,46.47
2019-03-19T13:46:55.648Z,47.66
2019-03-19T13:49:27.304Z,46.32
2019-03-19T13:51:59.029Z,46.97
2019-03-19T13:54:30.492Z,46.67
2019-03-19T13:57:03.459Z,46.55
2019-03-19T13:59:36.183Z,46.49
2019-03-19T14:02:07.961Z,45.46
2019-03-19T14:04:39.435Z,42.62
2019-03-19T14:07:11.200Z,40.83
2019-03-19T14:09:42.607Z,39.25
2019-03-19T14:12:16.154Z,37.13
2019-03-19T14:14:47.754Z,38.66
2019-03-19T14:17:19.345Z,41.34
2019-03-19T14:19:51.501Z,41.11
2019-03-19T14:22:23.222Z,40.62
2019-03-19T14:24:55.580Z,42.01
2019-03-19T14:27:27.693Z,42.71
2019-03-19T14:30:01.218Z,42.71
2019-03-19T14:32:32.728Z,41.98
2019-03-19T14:35:05.005Z,41.29
2019-03-19T14:37:37.159Z,42.53
2019-03-19T14:40:10.266Z,44.37
2019-03-19T14:42:41.857Z,43.73
2019-03-19T14:45:14.610Z,43.82
2019-03-19T14:47:47.273Z,45.90
2019-03-19T14:50:18.818Z,43.47
2019-03-19T14:52:50.624Z,45.77
2019-03-19T14:55:22.624Z,42.96
2019-03-19T14:57:54.485Z,42.28
2019-03-19T15:00:25.871Z,44.10
2019-03-19T15:02:57.155Z,43.46
2019-03-19T15:05:28.817Z,42.82
2019-03-19T15:08:00.341Z,42.77
2019-03-19T15:10:32.080Z,44.21
2019-03-19T15:13:04.102Z,45.05
2019-03-19T15:15:35.830Z,46.29
2019-03-19T15:18:07.891Z,48.89
2019-03-19T15:20:39.214Z,49.90
2019-03-19T15:23:11.507Z,50.63
2019-03-19T15:25:43.132Z,50.47
2019-03-19T15:28:15.997Z,50.45
2019-03-19T15:30:47.880Z,50.92
2019-03-19T15:33:19.415Z,51.79
2019-03-19T15:35:50.906Z,52.41
2019-03-19T15:38:22.650Z,50.39
2019-03-19T15:40:54.383Z,51.45
2019-03-19T15:43:26.173Z,51.45
2019-03-19T15:45:57.771Z,52.79
2019-03-19T15:48:29.395Z,52.35
2019-03-19T15:51:01.169Z,53.42
2019-03-19T15:53:33.043Z,51.96
2019-03-19T15:56:04.452Z,52.44
2019-03-19T15:58:35.976Z,51.73
2019-03-19T16:01:07.470Z,51.13
2019-03-19T16:03:38.975Z,49.68
2019-03-19T16:06:10.682Z,49.72
2019-03-19T16:08:42.244Z,49.94
2019-03-19T16:11:13.625Z,48.79
2019-03-19T16:13:45.212Z,48.74
2019-03-19T16:16:17.399Z,48.86
2019-03-19T16:18:49.128Z,48.78
2019-03-19T16:21:22.170Z,49.18
2019-03-19T16:23:53.818Z,49.60
2019-03-19T16:26:26.381Z,49.48
2019-03-19T16:28:57.818Z,49.49
2019-03-19T16:31:29.137Z,50.11
2019-03-19T16:34:01.142Z,49.97
2019-03-19T16:36:32.852Z,50.78
2019-03-19T16:39:05.980Z,50.36
2019-03-19T16:41:39.075Z,50.58
2019-03-19T16:44:11.659Z,50.03
2019-03-19T16:46:43.334Z,51.23
2019-03-19T16:49:14.950Z,51.60
2019-03-19T16:51:46.669Z,51.58
2019-03-19T16:54:19.454Z,51.68
2019-03-19T16:56:51.291Z,51.69
2019-03-19T16:59:22.838Z,51.60
2019-03-19T17:02:01.700Z,51.89
2019-03-19T17:04:27.771Z,52.40
2019-03-19T17:06:59.612Z,52.93
2019-03-19T17:09:31.175Z,53.46
2019-03-19T17:12:03.212Z,53.89
2019-03-19T17:14:34.767Z,54.51
2019-03-19T17:17:06.431Z,54.80
2019-03-19T17:19:37.906Z,55.15
2019-03-19T17:22:09.593Z,56.13
2019-03-19T17:24:41.208Z,56.75
2019-03-19T17:27:12.875Z,57.26
2019-03-19T17:29:44.513Z,57.31
2019-03-19T17:32:16.204Z,57.47
2019-03-19T17:34:48.366Z,57.87
2019-03-19T17:37:20.492Z,58.00
2019-03-19T17:39:51.973Z,58.60
2019-03-19T17:42:23.532Z,59.38
2019-03-19T17:44:56.399Z,59.07
2019-03-19T17:47:28.060Z,59.32
2019-03-19T17:49:59.476Z,60.41
2019-03-19T17:52:30.985Z,60.46
2019-03-19T17:55:02.568Z,60.55
2019-03-19T17:57:35.435Z,61.32
2019-03-19T18:00:08.317Z,61.26
2019-03-19T18:02:39.910Z,61.76
2019-03-19T18:05:11.478Z,61.56
2019-03-19T18:07:43.278Z,62.00
2019-03-19T18:10:15.242Z,61.91
2019-03-19T18:12:46.729Z,61.97
2019-03-19T18:15:18.321Z,62.33
2019-03-19T18:17:49.999Z,62.67
2019-03-19T18:20:21.615Z,62.87
2019-03-19T18:22:53.383Z,62.92
2019-03-19T18:25:25.005Z,63.42
2019-03-19T18:27:56.885Z,63.22
2019-03-19T18:30:28.371Z,63.50
2019-03-19T18:32:58.739Z,63.66
2019-03-19T18:35:30.220Z,64.15
2019-03-19T18:38:01.913Z,63.94
2019-03-19T18:40:33.444Z,63.90
2019-03-19T18:43:05.344Z,64.17
2019-03-19T18:45:36.649Z,64.34
2019-03-19T18:48:08.119Z,64.74
2019-03-19T18:50:39.765Z,64.80
2019-03-19T18:53:11.397Z,65.21
2019-03-19T18:55:43.001Z,65.52
2019-03-19T18:58:14.733Z,65.76
2019-03-19T19:00:46.462Z,65.54
2019-03-19T19:03:18.171Z,65.83
2019-03-19T19:05:49.851Z,65.94
2019-03-19T19:08:21.438Z,65.82
2019-03-19T19:10:52.945Z,66.01
2019-03-19T19:13:24.770Z,66.32
2019-03-19T19:15:56.154Z,66.64
2019-03-19T19:18:26.856Z,66.14
2019-03-19T19:20:57.138Z,66.81
2019-03-19T19:23:27.231Z,66.98
2019-03-19T19:25:57.502Z,67.19
2019-03-19T19:28:27.768Z,67.22
2019-03-19T19:30:59.818Z,67.61
2019-03-19T19:33:29.918Z,67.85
2019-03-19T19:36:00.191Z,67.40
2019-03-19T19:38:30.472Z,67.31
2019-03-19T19:41:01.880Z,67.25
2019-03-19T19:43:33.409Z,67.25
2019-03-19T19:46:05.519Z,67.46
2019-03-19T19:48:37.158Z,67.62
2019-03-19T19:51:08.606Z,67.73
2019-03-19T19:53:40.344Z,67.85
2019-03-19T19:56:11.899Z,68.25
2019-03-19T19:58:43.746Z,68.25
2019-03-19T20:01:15.138Z,68.17
2019-03-19T20:03:46.435Z,68.13
2019-03-19T20:06:17.883Z,68.13
2019-03-19T20:08:49.352Z,68.45
2019-03-19T20:11:20.822Z,68.58
2019-03-19T20:13:52.574Z,68.59
2019-03-19T20:16:23.964Z,68.61
2019-03-19T20:18:55.527Z,68.55
2019-03-19T20:21:27.257Z,68.99
2019-03-19T20:23:59.850Z,69.21
2019-03-19T20:26:31.491Z,69.22
2019-03-19T20:29:04.112Z,69.39
2019-03-19T20:31:36.898Z,69.40
2019-03-19T20:34:08.589Z,69.58
2019-03-19T20:36:40.836Z,69.48
2019-03-19T20:39:12.580Z,69.94
2019-03-19T20:41:44.548Z,70.09
2019-03-19T20:44:16.252Z,69.67
2019-03-19T20:46:47.644Z,70.12
2019-03-19T20:49:19.325Z,70.22
2019-03-19T20:51:51.029Z,70.35
2019-03-19T20:54:22.911Z,70.20
2019-03-19T20:56:54.415Z,70.33
2019-03-19T20:59:26.049Z,70.51
2019-03-19T21:01:57.529Z,70.44
2019-03-19T21:04:31.638Z,70.81
2019-03-19T21:07:02.923Z,70.76
2019-03-19T21:09:34.539Z,70.78
2019-03-19T21:12:06.239Z,70.76
2019-03-19T21:14:38.851Z,70.92
2019-03-19T21:17:10.535Z,71.15
2019-03-19T21:19:42.150Z,71.25
2019-03-19T21:22:13.834Z,71.22
2019-03-19T21:24:45.414Z,71.60
2019-03-19T21:27:17.405Z,71.99
2019-03-19T21:29:49.099Z,71.81
2019-03-19T21:32:20.600Z,71.73
2019-03-19T21:34:54.612Z,71.96
2019-03-19T21:37:26.256Z,72.38
2019-03-19T21:39:58.544Z,72.84
2019-03-19T21:42:30.469Z,72.35
2019-03-19T21:45:01.900Z,72.72
2019-03-19T21:47:33.645Z,72.50
2019-03-19T21:50:07.167Z,72.74
2019-03-19T21:52:39.014Z,72.80
2019-03-19T21:55:11.066Z,73.07
2019-03-19T21:57:42.698Z,72.91
2019-03-19T22:00:16.671Z,73.07
2019-03-19T22:02:48.159Z,72.79
2019-03-19T22:05:20.008Z,73.11
2019-03-19T22:07:51.690Z,72.84
2019-03-19T22:10:23.490Z,72.66
2019-03-19T22:12:55.141Z,72.54
2019-03-19T22:15:26.514Z,72.81
2019-03-19T22:17:58.345Z,73.19
2019-03-19T22:20:29.962Z,73.14
2019-03-19T22:23:01.908Z,73.28
2019-03-19T22:25:33.558Z,73.90
2019-03-19T22:28:05.316Z,73.52
2019-03-19T22:30:37.261Z,74.01
2019-03-19T22:33:08.826Z,74.02
2019-03-19T22:35:40.374Z,74.52
2019-03-19T22:38:11.944Z,73.84
2019-03-19T22:40:43.605Z,73.71
2019-03-19T22:43:15.495Z,73.81
2019-03-19T22:45:47.091Z,74.43
2019-03-19T22:48:18.839Z,74.94
2019-03-19T22:50:50.433Z,74.59
2019-03-19T22:53:22.267Z,74.59
2019-03-19T22:55:54.033Z,74.58
2019-03-19T22:58:25.708Z,74.92
2019-03-19T23:00:57.739Z,75.03
2019-03-19T23:03:29.547Z,75.37
2019-03-19T23:06:00.909Z,75.60
2019-03-19T23:08:33.663Z,76.01
2019-03-19T23:11:05.404Z,76.16
2019-03-19T23:13:37.025Z,76.08
2019-03-19T23:16:08.606Z,76.01
2019-03-19T23:18:40.330Z,75.48
2019-03-19T23:21:12.206Z,75.55
2019-03-19T23:23:43.774Z,75.57
2019-03-19T23:26:14.417Z,75.99
2019-03-19T23:28:45.999Z,77.91
2019-03-19T23:31:17.612Z,78.45
2019-03-19T23:33:49.177Z,78.92
2019-03-19T23:36:20.792Z,79.80
2019-03-19T23:38:52.704Z,78.93
2019-03-19T23:41:24.378Z,79.05
2019-03-19T23:43:55.934Z,79.21
2019-03-19T23:46:27.385Z,80.21
2019-03-19T23:49:00.959Z,80.34
2019-03-19T23:51:32.617Z,80.64
2019-03-19T23:54:04.547Z,80.34
2019-03-19T23:56:36.398Z,79.86
2019-03-19T23:59:07.859Z,79.67
